sensor_id;sensor_type;location;lat;lon;timestamp;temperature;humidity
22779;DHT22;11556;51.194;3.800;2022-10-17T00:01:09;16.30;99.90
22779;DHT22;11556;51.194;3.800;2022-10-17T00:03:36;16.40;99.90
22779;DHT22;11556;51.194;3.800;2022-10-17T00:06:12;16.30;99.90
22779;DHT22;11556;51.194;3.800;2022-10-17T00:08:39;16.30;99.90
22779;DHT22;11556;51.194;3.800;2022-10-17T00:11:13;16.30;99.90
22779;DHT22;11556;51.194;3.800;2022-10-17T00:13:39;16.20;99.90
22779;DHT22;11556;51.194;3.800;2022-10-17T00:16:05;16.20;99.90
22779;DHT22;11556;51.194;3.800;2022-10-17T00:18:31;16.20;99.90
22779;DHT22;11556;51.194;3.800;2022-10-17T00:20:57;16.20;99.90
22779;DHT22;11556;51.194;3.800;2022-10-17T00:23:22;16.20;99.90
22779;DHT22;11556;51.194;3.800;2022-10-17T00:25:57;16.20;99.90
22779;DHT22;11556;51.194;3.800;2022-10-17T00:28:23;16.20;99.90
22779;DHT22;11556;51.194;3.800;2022-10-17T00:30:58;16.30;99.90
22779;DHT22;11556;51.194;3.800;2022-10-17T00:33:24;16.20;99.90
22779;DHT22;11556;51.194;3.800;2022-10-17T00:35:50;16.30;99.90
22779;DHT22;11556;51.194;3.800;2022-10-17T00:38:16;16.20;99.90
22779;DHT22;11556;51.194;3.800;2022-10-17T00:40:41;16.20;99.90
22779;DHT22;11556;51.194;3.800;2022-10-17T00:43:15;16.20;99.90
22779;DHT22;11556;51.194;3.800;2022-10-17T00:45:41;16.20;99.90
22779;DHT22;11556;51.194;3.800;2022-10-17T00:48:08;16.10;99.90
22779;DHT22;11556;51.194;3.800;2022-10-17T00:50:36;16.10;99.90
22779;DHT22;11556;51.194;3.800;2022-10-17T00:53:04;16.10;99.90
22779;DHT22;11556;51.194;3.800;2022-10-17T00:55:33;16.10;99.90
22779;DHT22;11556;51.194;3.800;2022-10-17T00:58:02;16.20;99.90
22779;DHT22;11556;51.194;3.800;2022-10-17T01:00:29;16.20;99.90
22779;DHT22;11556;51.194;3.800;2022-10-17T01:02:54;16.30;99.90
22779;DHT22;11556;51.194;3.800;2022-10-17T01:05:20;16.30;99.90
22779;DHT22;11556;51.194;3.800;2022-10-17T01:07:48;16.40;99.90
22779;DHT22;11556;51.194;3.800;2022-10-17T01:10:15;16.40;99.90
22779;DHT22;11556;51.194;3.800;2022-10-17T01:26:24;16.30;99.90
22779;DHT22;11556;51.194;3.800;2022-10-17T01:31:54;16.40;99.90
22779;DHT22;11556;51.194;3.800;2022-10-17T01:34:31;16.40;99.90
22779;DHT22;11556;51.194;3.800;2022-10-17T01:39:31;16.40;99.90
22779;DHT22;11556;51.194;3.800;2022-10-17T01:42:00;16.40;99.90
22779;DHT22;11556;51.194;3.800;2022-10-17T01:47:33;16.40;99.90
22779;DHT22;11556;51.194;3.800;2022-10-17T01:50:06;16.40;99.90
22779;DHT22;11556;51.194;3.800;2022-10-17T01:52:54;16.40;99.90
22779;DHT22;11556;51.194;3.800;2022-10-17T01:55:29;16.40;99.90
22779;DHT22;11556;51.194;3.800;2022-10-17T02:00:44;16.40;99.90
22779;DHT22;11556;51.194;3.800;2022-10-17T02:03:15;16.30;99.90
22779;DHT22;11556;51.194;3.800;2022-10-17T02:05:42;16.20;99.90
22779;DHT22;11556;51.194;3.800;2022-10-17T02:08:09;16.30;99.90
22779;DHT22;11556;51.194;3.800;2022-10-17T02:10:43;16.20;99.90
22779;DHT22;11556;51.194;3.800;2022-10-17T02:21:50;16.50;99.90
22779;DHT22;11556;51.194;3.800;2022-10-17T02:27:34;16.50;99.90
22779;DHT22;11556;51.194;3.800;2022-10-17T02:30:15;16.50;99.90
22779;DHT22;11556;51.194;3.800;2022-10-17T02:32:52;16.70;99.90
22779;DHT22;11556;51.194;3.800;2022-10-17T02:35:19;16.70;99.90
22779;DHT22;11556;51.194;3.800;2022-10-17T02:37:47;16.70;99.90
22779;DHT22;11556;51.194;3.800;2022-10-17T02:40:15;16.90;99.90
22779;DHT22;11556;51.194;3.800;2022-10-17T02:42:43;17.00;99.90
22779;DHT22;11556;51.194;3.800;2022-10-17T02:45:10;17.10;99.90
22779;DHT22;11556;51.194;3.800;2022-10-17T02:47:52;17.10;99.90
22779;DHT22;11556;51.194;3.800;2022-10-17T02:50:22;17.20;99.90
22779;DHT22;11556;51.194;3.800;2022-10-17T02:52:55;17.20;99.90
22779;DHT22;11556;51.194;3.800;2022-10-17T02:55:32;17.30;99.90
22779;DHT22;11556;51.194;3.800;2022-10-17T02:58:04;17.30;99.90
22779;DHT22;11556;51.194;3.800;2022-10-17T03:00:30;17.30;99.90
22779;DHT22;11556;51.194;3.800;2022-10-17T03:02:56;17.30;99.90
22779;DHT22;11556;51.194;3.800;2022-10-17T03:05:25;17.30;99.90
22779;DHT22;11556;51.194;3.800;2022-10-17T03:07:52;17.30;99.90
22779;DHT22;11556;51.194;3.800;2022-10-17T03:10:18;17.40;99.90
22779;DHT22;11556;51.194;3.800;2022-10-17T03:12:44;17.50;99.90
22779;DHT22;11556;51.194;3.800;2022-10-17T03:15:10;17.50;99.90
22779;DHT22;11556;51.194;3.800;2022-10-17T03:17:36;17.50;99.90
22779;DHT22;11556;51.194;3.800;2022-10-17T03:20:03;17.50;99.90
22779;DHT22;11556;51.194;3.800;2022-10-17T03:22:29;17.60;99.90
22779;DHT22;11556;51.194;3.800;2022-10-17T03:24:55;17.70;99.90
22779;DHT22;11556;51.194;3.800;2022-10-17T03:27:20;17.80;99.90
22779;DHT22;11556;51.194;3.800;2022-10-17T03:29:46;17.80;99.90
22779;DHT22;11556;51.194;3.800;2022-10-17T03:32:12;17.90;99.90
22779;DHT22;11556;51.194;3.800;2022-10-17T03:34:37;17.90;99.90
22779;DHT22;11556;51.194;3.800;2022-10-17T03:37:03;17.90;99.90
22779;DHT22;11556;51.194;3.800;2022-10-17T03:39:28;17.80;99.90
22779;DHT22;11556;51.194;3.800;2022-10-17T03:41:54;17.90;99.90
22779;DHT22;11556;51.194;3.800;2022-10-17T03:44:20;17.90;99.90
22779;DHT22;11556;51.194;3.800;2022-10-17T03:46:45;18.00;99.90
22779;DHT22;11556;51.194;3.800;2022-10-17T03:49:11;18.00;99.90
22779;DHT22;11556;51.194;3.800;2022-10-17T03:51:36;18.10;99.90
22779;DHT22;11556;51.194;3.800;2022-10-17T03:54:02;18.00;99.90
22779;DHT22;11556;51.194;3.800;2022-10-17T03:56:28;18.10;99.90
22779;DHT22;11556;51.194;3.800;2022-10-17T03:58:54;18.10;99.90
22779;DHT22;11556;51.194;3.800;2022-10-17T04:01:20;18.10;99.90
22779;DHT22;11556;51.194;3.800;2022-10-17T04:03:54;18.10;99.90
22779;DHT22;11556;51.194;3.800;2022-10-17T04:06:20;18.10;99.90
22779;DHT22;11556;51.194;3.800;2022-10-17T04:08:46;18.10;99.90
22779;DHT22;11556;51.194;3.800;2022-10-17T04:11:14;18.10;99.90
22779;DHT22;11556;51.194;3.800;2022-10-17T04:13:40;18.10;99.90
22779;DHT22;11556;51.194;3.800;2022-10-17T04:16:09;18.10;99.90
22779;DHT22;11556;51.194;3.800;2022-10-17T04:18:35;18.20;99.90
22779;DHT22;11556;51.194;3.800;2022-10-17T04:21:02;18.20;99.90
22779;DHT22;11556;51.194;3.800;2022-10-17T04:23:28;18.20;99.90
22779;DHT22;11556;51.194;3.800;2022-10-17T04:25:58;18.20;99.90
22779;DHT22;11556;51.194;3.800;2022-10-17T04:28:24;18.30;99.90
22779;DHT22;11556;51.194;3.800;2022-10-17T04:31:02;18.30;99.90
22779;DHT22;11556;51.194;3.800;2022-10-17T04:33:29;18.30;99.90
22779;DHT22;11556;51.194;3.800;2022-10-17T04:35:59;18.20;99.90
22779;DHT22;11556;51.194;3.800;2022-10-17T04:38:26;18.20;99.90
22779;DHT22;11556;51.194;3.800;2022-10-17T04:40:52;18.10;99.90
22779;DHT22;11556;51.194;3.800;2022-10-17T04:43:17;18.20;99.90
22779;DHT22;11556;51.194;3.800;2022-10-17T04:45:43;18.30;99.90
22779;DHT22;11556;51.194;3.800;2022-10-17T04:48:09;18.20;99.90
22779;DHT22;11556;51.194;3.800;2022-10-17T04:50:34;18.20;99.90
22779;DHT22;11556;51.194;3.800;2022-10-17T04:53:00;18.20;99.90
22779;DHT22;11556;51.194;3.800;2022-10-17T04:55:25;18.20;99.90
22779;DHT22;11556;51.194;3.800;2022-10-17T04:57:51;18.30;99.90
22779;DHT22;11556;51.194;3.800;2022-10-17T05:00:17;18.40;99.90
22779;DHT22;11556;51.194;3.800;2022-10-17T05:02:42;18.30;99.90
22779;DHT22;11556;51.194;3.800;2022-10-17T05:05:08;18.40;99.90
22779;DHT22;11556;51.194;3.800;2022-10-17T05:07:33;18.30;99.90
22779;DHT22;11556;51.194;3.800;2022-10-17T05:09:59;18.40;99.90
22779;DHT22;11556;51.194;3.800;2022-10-17T05:12:25;18.30;99.90
22779;DHT22;11556;51.194;3.800;2022-10-17T05:14:50;18.40;99.90
22779;DHT22;11556;51.194;3.800;2022-10-17T05:17:16;18.40;99.90
22779;DHT22;11556;51.194;3.800;2022-10-17T05:19:42;18.40;99.90
22779;DHT22;11556;51.194;3.800;2022-10-17T05:22:07;18.40;99.90
22779;DHT22;11556;51.194;3.800;2022-10-17T05:24:33;18.40;99.90
22779;DHT22;11556;51.194;3.800;2022-10-17T05:26:58;18.50;99.90
22779;DHT22;11556;51.194;3.800;2022-10-17T05:29:24;18.50;99.90
22779;DHT22;11556;51.194;3.800;2022-10-17T05:31:50;18.40;99.90
22779;DHT22;11556;51.194;3.800;2022-10-17T05:34:15;18.40;99.90
22779;DHT22;11556;51.194;3.800;2022-10-17T05:36:41;18.40;99.90
22779;DHT22;11556;51.194;3.800;2022-10-17T05:39:06;18.40;99.90
22779;DHT22;11556;51.194;3.800;2022-10-17T05:41:33;18.40;99.90
22779;DHT22;11556;51.194;3.800;2022-10-17T05:43:59;18.50;99.90
22779;DHT22;11556;51.194;3.800;2022-10-17T05:46:24;18.50;99.90
22779;DHT22;11556;51.194;3.800;2022-10-17T05:48:50;18.50;99.90
22779;DHT22;11556;51.194;3.800;2022-10-17T05:51:15;18.50;99.90
22779;DHT22;11556;51.194;3.800;2022-10-17T05:53:41;18.60;99.90
22779;DHT22;11556;51.194;3.800;2022-10-17T05:56:09;18.60;99.90
22779;DHT22;11556;51.194;3.800;2022-10-17T05:58:35;18.60;99.90
22779;DHT22;11556;51.194;3.800;2022-10-17T06:01:05;18.60;99.90
22779;DHT22;11556;51.194;3.800;2022-10-17T06:03:32;18.60;99.90
22779;DHT22;11556;51.194;3.800;2022-10-17T06:06:08;18.70;99.90
22779;DHT22;11556;51.194;3.800;2022-10-17T06:08:34;18.60;99.90
22779;DHT22;11556;51.194;3.800;2022-10-17T06:11:00;18.60;99.90
22779;DHT22;11556;51.194;3.800;2022-10-17T06:13:25;18.60;99.90
22779;DHT22;11556;51.194;3.800;2022-10-17T06:15:51;18.60;99.90
22779;DHT22;11556;51.194;3.800;2022-10-17T06:18:17;18.60;99.90
22779;DHT22;11556;51.194;3.800;2022-10-17T06:20:42;18.60;99.90
22779;DHT22;11556;51.194;3.800;2022-10-17T06:23:08;18.50;99.90
22779;DHT22;11556;51.194;3.800;2022-10-17T06:25:34;18.40;99.90
22779;DHT22;11556;51.194;3.800;2022-10-17T06:28:00;18.40;99.90
22779;DHT22;11556;51.194;3.800;2022-10-17T06:30:26;18.40;99.90
22779;DHT22;11556;51.194;3.800;2022-10-17T06:32:52;18.40;99.90
22779;DHT22;11556;51.194;3.800;2022-10-17T06:35:18;18.40;99.90
22779;DHT22;11556;51.194;3.800;2022-10-17T06:37:44;18.30;99.90
22779;DHT22;11556;51.194;3.800;2022-10-17T06:40:10;18.30;99.90
22779;DHT22;11556;51.194;3.800;2022-10-17T06:42:40;18.30;99.90
22779;DHT22;11556;51.194;3.800;2022-10-17T06:45:06;18.10;99.90
22779;DHT22;11556;51.194;3.800;2022-10-17T06:47:32;18.00;99.90
22779;DHT22;11556;51.194;3.800;2022-10-17T06:49:58;17.90;99.90
22779;DHT22;11556;51.194;3.800;2022-10-17T06:52:24;18.00;99.90
22779;DHT22;11556;51.194;3.800;2022-10-17T06:54:49;17.80;99.90
22779;DHT22;11556;51.194;3.800;2022-10-17T06:57:16;17.80;99.90
22779;DHT22;11556;51.194;3.800;2022-10-17T06:59:42;17.80;99.90
22779;DHT22;11556;51.194;3.800;2022-10-17T07:02:09;17.90;99.90
22779;DHT22;11556;51.194;3.800;2022-10-17T07:04:35;17.90;99.90
22779;DHT22;11556;51.194;3.800;2022-10-17T07:07:00;17.90;99.90
22779;DHT22;11556;51.194;3.800;2022-10-17T07:09:28;17.80;99.90
22779;DHT22;11556;51.194;3.800;2022-10-17T07:11:54;17.80;99.90
22779;DHT22;11556;51.194;3.800;2022-10-17T07:14:20;17.80;99.90
22779;DHT22;11556;51.194;3.800;2022-10-17T07:16:46;17.90;99.90
22779;DHT22;11556;51.194;3.800;2022-10-17T07:19:11;17.90;99.90
22779;DHT22;11556;51.194;3.800;2022-10-17T07:21:37;17.90;99.90
22779;DHT22;11556;51.194;3.800;2022-10-17T07:24:03;18.00;99.90
22779;DHT22;11556;51.194;3.800;2022-10-17T07:26:30;17.80;99.90
22779;DHT22;11556;51.194;3.800;2022-10-17T07:28:55;17.80;99.90
22779;DHT22;11556;51.194;3.800;2022-10-17T07:31:22;17.70;99.90
22779;DHT22;11556;51.194;3.800;2022-10-17T07:33:49;17.60;99.90
22779;DHT22;11556;51.194;3.800;2022-10-17T07:36:16;17.60;99.90
22779;DHT22;11556;51.194;3.800;2022-10-17T07:38:42;17.60;99.90
22779;DHT22;11556;51.194;3.800;2022-10-17T07:41:10;17.60;99.90
22779;DHT22;11556;51.194;3.800;2022-10-17T07:43:36;17.70;99.90
22779;DHT22;11556;51.194;3.800;2022-10-17T07:46:02;17.60;99.90
22779;DHT22;11556;51.194;3.800;2022-10-17T07:48:29;17.60;99.90
22779;DHT22;11556;51.194;3.800;2022-10-17T07:50:55;17.50;99.90
22779;DHT22;11556;51.194;3.800;2022-10-17T07:53:21;17.70;99.90
22779;DHT22;11556;51.194;3.800;2022-10-17T07:55:46;17.60;99.90
22779;DHT22;11556;51.194;3.800;2022-10-17T07:58:14;17.60;99.90
22779;DHT22;11556;51.194;3.800;2022-10-17T08:00:39;17.60;99.90
22779;DHT22;11556;51.194;3.800;2022-10-17T08:03:05;17.70;99.90
22779;DHT22;11556;51.194;3.800;2022-10-17T08:05:32;17.60;99.90
22779;DHT22;11556;51.194;3.800;2022-10-17T08:07:58;17.70;99.90
22779;DHT22;11556;51.194;3.800;2022-10-17T08:10:23;17.60;99.90
22779;DHT22;11556;51.194;3.800;2022-10-17T08:12:57;17.70;99.90
22779;DHT22;11556;51.194;3.800;2022-10-17T08:15:25;17.70;99.90
22779;DHT22;11556;51.194;3.800;2022-10-17T08:17:50;17.70;99.90
22779;DHT22;11556;51.194;3.800;2022-10-17T08:20:16;17.70;99.90
22779;DHT22;11556;51.194;3.800;2022-10-17T08:22:42;17.70;99.90
22779;DHT22;11556;51.194;3.800;2022-10-17T08:25:08;17.70;99.90
22779;DHT22;11556;51.194;3.800;2022-10-17T08:27:34;17.60;99.90
22779;DHT22;11556;51.194;3.800;2022-10-17T08:30:02;17.70;99.90
22779;DHT22;11556;51.194;3.800;2022-10-17T08:32:29;17.80;99.90
22779;DHT22;11556;51.194;3.800;2022-10-17T08:34:58;17.80;99.90
22779;DHT22;11556;51.194;3.800;2022-10-17T08:37:25;17.80;99.90
22779;DHT22;11556;51.194;3.800;2022-10-17T08:39:51;17.90;99.90
22779;DHT22;11556;51.194;3.800;2022-10-17T08:42:58;17.80;99.90
22779;DHT22;11556;51.194;3.800;2022-10-17T08:48:13;17.70;99.90
22779;DHT22;11556;51.194;3.800;2022-10-17T08:50:52;17.70;99.90
22779;DHT22;11556;51.194;3.800;2022-10-17T08:58:41;17.60;99.90
22779;DHT22;11556;51.194;3.800;2022-10-17T09:12:27;17.70;99.90
22779;DHT22;11556;51.194;3.800;2022-10-17T09:18:46;17.90;99.90
22779;DHT22;11556;51.194;3.800;2022-10-17T09:24:00;17.80;99.90
22779;DHT22;11556;51.194;3.800;2022-10-17T09:26:27;18.00;99.90
22779;DHT22;11556;51.194;3.800;2022-10-17T09:28:58;17.90;99.90
22779;DHT22;11556;51.194;3.800;2022-10-17T09:31:28;17.90;99.90
22779;DHT22;11556;51.194;3.800;2022-10-17T09:33:56;17.90;99.90
22779;DHT22;11556;51.194;3.800;2022-10-17T09:36:37;18.00;99.90
22779;DHT22;11556;51.194;3.800;2022-10-17T09:39:18;18.00;99.90
22779;DHT22;11556;51.194;3.800;2022-10-17T09:41:48;18.00;99.90
22779;DHT22;11556;51.194;3.800;2022-10-17T09:44:29;18.00;99.90
22779;DHT22;11556;51.194;3.800;2022-10-17T09:49:48;18.00;99.90
22779;DHT22;11556;51.194;3.800;2022-10-17T09:52:59;18.00;99.90
22779;DHT22;11556;51.194;3.800;2022-10-17T09:55:16;17.90;99.90
22779;DHT22;11556;51.194;3.800;2022-10-17T09:58:10;18.00;99.90
22779;DHT22;11556;51.194;3.800;2022-10-17T10:00:37;18.10;99.90
22779;DHT22;11556;51.194;3.800;2022-10-17T10:03:22;18.10;99.90
22779;DHT22;11556;51.194;3.800;2022-10-17T10:06:03;18.20;99.90
22779;DHT22;11556;51.194;3.800;2022-10-17T10:08:46;18.20;99.90
22779;DHT22;11556;51.194;3.800;2022-10-17T10:11:16;18.30;99.90
22779;DHT22;11556;51.194;3.800;2022-10-17T10:13:47;18.20;99.90
22779;DHT22;11556;51.194;3.800;2022-10-17T10:18:44;18.30;99.90
22779;DHT22;11556;51.194;3.800;2022-10-17T10:21:22;18.30;99.90
22779;DHT22;11556;51.194;3.800;2022-10-17T10:24:12;18.40;99.90
22779;DHT22;11556;51.194;3.800;2022-10-17T10:26:42;18.30;99.90
22779;DHT22;11556;51.194;3.800;2022-10-17T10:29:22;18.30;99.90
22779;DHT22;11556;51.194;3.800;2022-10-17T10:31:50;18.30;99.90
22779;DHT22;11556;51.194;3.800;2022-10-17T10:34:27;18.50;99.90
22779;DHT22;11556;51.194;3.800;2022-10-17T10:37:00;18.70;99.90
22779;DHT22;11556;51.194;3.800;2022-10-17T10:41:55;19.00;99.90
22779;DHT22;11556;51.194;3.800;2022-10-17T10:44:23;19.00;99.90
22779;DHT22;11556;51.194;3.800;2022-10-17T10:47:25;18.80;99.90
22779;DHT22;11556;51.194;3.800;2022-10-17T10:50:39;19.00;99.90
22779;DHT22;11556;51.194;3.800;2022-10-17T10:55:49;19.40;99.90
22779;DHT22;11556;51.194;3.800;2022-10-17T10:59:12;19.60;99.90
22779;DHT22;11556;51.194;3.800;2022-10-17T11:04:09;20.10;99.90
22779;DHT22;11556;51.194;3.800;2022-10-17T11:06:41;20.20;99.90
22779;DHT22;11556;51.194;3.800;2022-10-17T11:12:00;20.50;99.90
22779;DHT22;11556;51.194;3.800;2022-10-17T11:17:05;21.20;99.90
22779;DHT22;11556;51.194;3.800;2022-10-17T11:22:25;21.40;99.90
22779;DHT22;11556;51.194;3.800;2022-10-17T11:25:04;21.50;99.90
22779;DHT22;11556;51.194;3.800;2022-10-17T11:27:31;21.40;99.90
22779;DHT22;11556;51.194;3.800;2022-10-17T11:29:58;21.20;99.90
22779;DHT22;11556;51.194;3.800;2022-10-17T11:32:28;21.20;99.90
22779;DHT22;11556;51.194;3.800;2022-10-17T11:35:03;21.00;99.90
22779;DHT22;11556;51.194;3.800;2022-10-17T11:37:34;20.80;99.90
22779;DHT22;11556;51.194;3.800;2022-10-17T11:40:29;21.00;99.90
22779;DHT22;11556;51.194;3.800;2022-10-17T11:43:07;21.10;99.90
22779;DHT22;11556;51.194;3.800;2022-10-17T11:45:48;21.10;99.90
22779;DHT22;11556;51.194;3.800;2022-10-17T11:48:27;21.30;99.90
22779;DHT22;11556;51.194;3.800;2022-10-17T11:51:08;21.30;99.90
22779;DHT22;11556;51.194;3.800;2022-10-17T11:54:09;21.50;99.90
22779;DHT22;11556;51.194;3.800;2022-10-17T12:02:19;20.90;99.90
22779;DHT22;11556;51.194;3.800;2022-10-17T12:07:37;21.00;99.90
22779;DHT22;11556;51.194;3.800;2022-10-17T12:12:38;21.10;99.90
22779;DHT22;11556;51.194;3.800;2022-10-17T12:18:01;21.00;99.90
22779;DHT22;11556;51.194;3.800;2022-10-17T12:20:35;21.10;99.90
22779;DHT22;11556;51.194;3.800;2022-10-17T12:23:18;21.40;99.90
22779;DHT22;11556;51.194;3.800;2022-10-17T12:25:55;21.40;99.90
22779;DHT22;11556;51.194;3.800;2022-10-17T12:31:08;21.10;99.90
22779;DHT22;11556;51.194;3.800;2022-10-17T12:44:14;21.20;99.90
22779;DHT22;11556;51.194;3.800;2022-10-17T12:49:39;21.10;99.90
22779;DHT22;11556;51.194;3.800;2022-10-17T12:52:24;21.10;99.90
22779;DHT22;11556;51.194;3.800;2022-10-17T12:54:55;21.00;99.90
22779;DHT22;11556;51.194;3.800;2022-10-17T13:03:05;21.00;99.90
22779;DHT22;11556;51.194;3.800;2022-10-17T13:05:37;21.00;99.90
22779;DHT22;11556;51.194;3.800;2022-10-17T13:08:06;21.10;99.90
22779;DHT22;11556;51.194;3.800;2022-10-17T13:10:37;21.20;99.90
22779;DHT22;11556;51.194;3.800;2022-10-17T13:13:09;21.40;99.90
22779;DHT22;11556;51.194;3.800;2022-10-17T13:15:38;21.40;99.90
22779;DHT22;11556;51.194;3.800;2022-10-17T13:18:04;21.10;99.90
22779;DHT22;11556;51.194;3.800;2022-10-17T13:20:30;21.00;99.90
22779;DHT22;11556;51.194;3.800;2022-10-17T13:22:57;20.90;99.90
22779;DHT22;11556;51.194;3.800;2022-10-17T13:25:24;21.00;99.90
22779;DHT22;11556;51.194;3.800;2022-10-17T13:28:03;21.10;99.90
22779;DHT22;11556;51.194;3.800;2022-10-17T13:30:31;21.10;99.90
22779;DHT22;11556;51.194;3.800;2022-10-17T13:32:58;21.10;99.90
22779;DHT22;11556;51.194;3.800;2022-10-17T13:35:34;21.10;99.90
22779;DHT22;11556;51.194;3.800;2022-10-17T13:38:01;21.40;99.90
22779;DHT22;11556;51.194;3.800;2022-10-17T13:40:39;21.70;99.90
22779;DHT22;11556;51.194;3.800;2022-10-17T13:43:14;21.70;99.90
22779;DHT22;11556;51.194;3.800;2022-10-17T13:45:48;21.60;99.90
22779;DHT22;11556;51.194;3.800;2022-10-17T13:48:25;21.50;99.90
22779;DHT22;11556;51.194;3.800;2022-10-17T13:50:56;21.40;99.90
22779;DHT22;11556;51.194;3.800;2022-10-17T13:53:30;21.50;99.90
22779;DHT22;11556;51.194;3.800;2022-10-17T13:59:20;21.90;99.90
22779;DHT22;11556;51.194;3.800;2022-10-17T14:01:47;21.70;99.90
22779;DHT22;11556;51.194;3.800;2022-10-17T14:04:14;21.50;99.90
22779;DHT22;11556;51.194;3.800;2022-10-17T14:06:44;21.40;99.90
22779;DHT22;11556;51.194;3.800;2022-10-17T14:09:36;21.30;99.90
22779;DHT22;11556;51.194;3.800;2022-10-17T14:12:09;21.10;99.90
22779;DHT22;11556;51.194;3.800;2022-10-17T14:14:38;21.10;99.90
22779;DHT22;11556;51.194;3.800;2022-10-17T14:17:33;21.10;99.90
22779;DHT22;11556;51.194;3.800;2022-10-17T14:20:00;21.10;99.90
22779;DHT22;11556;51.194;3.800;2022-10-17T14:22:33;21.30;99.90
22779;DHT22;11556;51.194;3.800;2022-10-17T14:24:59;21.60;99.90
22779;DHT22;11556;51.194;3.800;2022-10-17T14:29:57;22.20;99.90
22779;DHT22;11556;51.194;3.800;2022-10-17T14:32:26;22.40;99.90
22779;DHT22;11556;51.194;3.800;2022-10-17T14:34:54;22.20;99.90
22779;DHT22;11556;51.194;3.800;2022-10-17T14:37:38;22.20;99.90
22779;DHT22;11556;51.194;3.800;2022-10-17T14:40:05;22.40;99.90
22779;DHT22;11556;51.194;3.800;2022-10-17T14:42:31;22.10;99.90
22779;DHT22;11556;51.194;3.800;2022-10-17T14:45:06;21.80;99.90
22779;DHT22;11556;51.194;3.800;2022-10-17T14:47:32;21.60;99.90
22779;DHT22;11556;51.194;3.800;2022-10-17T14:50:06;21.60;99.90
22779;DHT22;11556;51.194;3.800;2022-10-17T14:52:33;21.30;99.90
22779;DHT22;11556;51.194;3.800;2022-10-17T14:55:16;21.00;99.90
22779;DHT22;11556;51.194;3.800;2022-10-17T14:57:45;20.70;99.90
22779;DHT22;11556;51.194;3.800;2022-10-17T15:00:18;20.70;99.90
22779;DHT22;11556;51.194;3.800;2022-10-17T15:02:44;20.60;99.90
22779;DHT22;11556;51.194;3.800;2022-10-17T15:05:11;20.60;99.90
22779;DHT22;11556;51.194;3.800;2022-10-17T15:07:37;20.50;99.90
22779;DHT22;11556;51.194;3.800;2022-10-17T15:10:04;20.50;99.90
22779;DHT22;11556;51.194;3.800;2022-10-17T15:12:29;20.40;99.90
22779;DHT22;11556;51.194;3.800;2022-10-17T15:14:57;20.50;99.90
22779;DHT22;11556;51.194;3.800;2022-10-17T15:17:32;20.40;99.90
22779;DHT22;11556;51.194;3.800;2022-10-17T15:20:00;20.40;99.90
22779;DHT22;11556;51.194;3.800;2022-10-17T15:22:25;20.30;99.90
22779;DHT22;11556;51.194;3.800;2022-10-17T15:24:51;20.40;99.90
22779;DHT22;11556;51.194;3.800;2022-10-17T15:27:24;20.30;99.90
22779;DHT22;11556;51.194;3.800;2022-10-17T15:29:50;20.40;99.90
22779;DHT22;11556;51.194;3.800;2022-10-17T15:32:17;20.20;99.90
22779;DHT22;11556;51.194;3.800;2022-10-17T15:34:43;20.20;99.90
22779;DHT22;11556;51.194;3.800;2022-10-17T15:37:22;20.30;99.90
22779;DHT22;11556;51.194;3.800;2022-10-17T15:39:52;20.20;99.90
22779;DHT22;11556;51.194;3.800;2022-10-17T15:42:25;20.10;99.90
22779;DHT22;11556;51.194;3.800;2022-10-17T15:44:51;19.90;99.90
22779;DHT22;11556;51.194;3.800;2022-10-17T15:47:37;19.90;99.90
22779;DHT22;11556;51.194;3.800;2022-10-17T15:50:05;20.00;99.90
22779;DHT22;11556;51.194;3.800;2022-10-17T15:52:31;19.90;99.90
22779;DHT22;11556;51.194;3.800;2022-10-17T15:54:56;20.00;99.90
22779;DHT22;11556;51.194;3.800;2022-10-17T15:57:27;19.90;99.90
22779;DHT22;11556;51.194;3.800;2022-10-17T15:59:55;19.90;99.90
22779;DHT22;11556;51.194;3.800;2022-10-17T16:02:22;19.90;99.90
22779;DHT22;11556;51.194;3.800;2022-10-17T16:04:49;19.90;99.90
22779;DHT22;11556;51.194;3.800;2022-10-17T16:07:16;19.80;99.90
22779;DHT22;11556;51.194;3.800;2022-10-17T16:09:42;19.80;99.90
22779;DHT22;11556;51.194;3.800;2022-10-17T16:12:16;19.70;99.90
22779;DHT22;11556;51.194;3.800;2022-10-17T16:14:42;19.60;99.90
22779;DHT22;11556;51.194;3.800;2022-10-17T16:17:16;19.50;99.90
22779;DHT22;11556;51.194;3.800;2022-10-17T16:19:42;19.40;99.90
22779;DHT22;11556;51.194;3.800;2022-10-17T16:22:26;19.40;99.90
22779;DHT22;11556;51.194;3.800;2022-10-17T16:24:56;19.40;99.90
22779;DHT22;11556;51.194;3.800;2022-10-17T16:27:24;19.30;99.90
22779;DHT22;11556;51.194;3.800;2022-10-17T16:29:50;19.30;99.90
22779;DHT22;11556;51.194;3.800;2022-10-17T16:32:16;19.20;99.90
22779;DHT22;11556;51.194;3.800;2022-10-17T16:34:41;19.20;99.90
22779;DHT22;11556;51.194;3.800;2022-10-17T16:37:07;19.00;99.90
22779;DHT22;11556;51.194;3.800;2022-10-17T16:39:32;19.00;99.90
22779;DHT22;11556;51.194;3.800;2022-10-17T16:41:58;18.90;99.90
22779;DHT22;11556;51.194;3.800;2022-10-17T16:44:23;18.90;99.90
22779;DHT22;11556;51.194;3.800;2022-10-17T16:46:49;18.90;99.90
22779;DHT22;11556;51.194;3.800;2022-10-17T16:49:15;18.80;99.90
22779;DHT22;11556;51.194;3.800;2022-10-17T16:51:42;18.90;99.90
22779;DHT22;11556;51.194;3.800;2022-10-17T16:54:08;18.80;99.90
22779;DHT22;11556;51.194;3.800;2022-10-17T16:56:33;18.80;99.90
22779;DHT22;11556;51.194;3.800;2022-10-17T16:59:00;18.70;99.90
22779;DHT22;11556;51.194;3.800;2022-10-17T17:01:26;18.60;99.90
22779;DHT22;11556;51.194;3.800;2022-10-17T17:03:54;18.50;99.90
22779;DHT22;11556;51.194;3.800;2022-10-17T17:06:23;18.40;99.90
22779;DHT22;11556;51.194;3.800;2022-10-17T17:08:49;18.40;99.90
22779;DHT22;11556;51.194;3.800;2022-10-17T17:11:16;18.30;99.90
22779;DHT22;11556;51.194;3.800;2022-10-17T17:13:42;18.30;99.90
22779;DHT22;11556;51.194;3.800;2022-10-17T17:16:13;18.30;99.90
22779;DHT22;11556;51.194;3.800;2022-10-17T17:18:40;18.30;99.90
22779;DHT22;11556;51.194;3.800;2022-10-17T17:21:07;18.30;99.90
22779;DHT22;11556;51.194;3.800;2022-10-17T17:23:35;18.40;99.90
22779;DHT22;11556;51.194;3.800;2022-10-17T17:26:03;18.30;99.90
22779;DHT22;11556;51.194;3.800;2022-10-17T17:28:30;18.30;99.90
22779;DHT22;11556;51.194;3.800;2022-10-17T17:30:56;18.20;99.90
22779;DHT22;11556;51.194;3.800;2022-10-17T17:33:22;18.10;99.90
22779;DHT22;11556;51.194;3.800;2022-10-17T17:35:56;18.20;99.90
22779;DHT22;11556;51.194;3.800;2022-10-17T17:38:22;18.10;99.90
22779;DHT22;11556;51.194;3.800;2022-10-17T17:40:48;18.20;99.90
22779;DHT22;11556;51.194;3.800;2022-10-17T17:43:14;18.10;99.90
22779;DHT22;11556;51.194;3.800;2022-10-17T17:45:39;18.10;99.90
22779;DHT22;11556;51.194;3.800;2022-10-17T17:48:05;18.10;99.90
22779;DHT22;11556;51.194;3.800;2022-10-17T17:50:31;18.10;99.90